sensor_id;sensor_type;location;lat;lon;timestamp;pressure;altitude;pressure_sealevel;temperature;humidity
18988;BME280;5494;51.796;10.952;2022-08-18T00:01:37;98522.13;;;21.81;52.16
18988;BME280;5494;51.796;10.952;2022-08-18T00:04:10;98511.53;;;21.81;51.48
18988;BME280;5494;51.796;10.952;2022-08-18T00:06:59;98507.19;;;21.72;51.82
18988;BME280;5494;51.796;10.952;2022-08-18T00:09:27;98509.69;;;21.74;51.46
18988;BME280;5494;51.796;10.952;2022-08-18T00:12:02;98510.00;;;21.71;51.41
18988;BME280;5494;51.796;10.952;2022-08-18T00:14:31;98513.81;;;21.68;51.39
18988;BME280;5494;51.796;10.952;2022-08-18T00:17:00;98496.28;;;21.75;51.30
18988;BME280;5494;51.796;10.952;2022-08-18T00:19:30;98499.94;;;21.74;51.00
18988;BME280;5494;51.796;10.952;2022-08-18T00:22:18;98491.16;;;21.74;50.84
18988;BME280;5494;51.796;10.952;2022-08-18T00:24:52;98491.31;;;21.72;51.35
18988;BME280;5494;51.796;10.952;2022-08-18T00:27:25;98494.47;;;21.76;51.00
18988;BME280;5494;51.796;10.952;2022-08-18T00:29:59;98494.63;;;21.74;51.15
18988;BME280;5494;51.796;10.952;2022-08-18T00:32:34;98500.59;;;21.76;50.59
18988;BME280;5494;51.796;10.952;2022-08-18T00:35:10;98503.09;;;21.78;50.78
18988;BME280;5494;51.796;10.952;2022-08-18T00:37:41;98505.75;;;21.78;50.50
18988;BME280;5494;51.796;10.952;2022-08-18T00:40:15;98504.91;;;21.77;50.23
18988;BME280;5494;51.796;10.952;2022-08-18T00:42:48;98513.88;;;21.84;51.69
18988;BME280;5494;51.796;10.952;2022-08-18T00:45:22;98508.31;;;21.61;52.33
18988;BME280;5494;51.796;10.952;2022-08-18T00:47:51;98502.31;;;21.51;52.41
18988;BME280;5494;51.796;10.952;2022-08-18T00:50:29;98509.75;;;21.48;53.08
18988;BME280;5494;51.796;10.952;2022-08-18T00:53:08;98510.25;;;21.51;53.04
18988;BME280;5494;51.796;10.952;2022-08-18T00:55:40;98513.25;;;21.56;52.82
18988;BME280;5494;51.796;10.952;2022-08-18T00:58:28;98500.81;;;21.49;52.65
18988;BME280;5494;51.796;10.952;2022-08-18T01:01:04;98504.94;;;21.43;52.80
18988;BME280;5494;51.796;10.952;2022-08-18T01:03:36;98503.91;;;21.36;53.87
18988;BME280;5494;51.796;10.952;2022-08-18T01:06:15;98504.34;;;21.32;53.97
18988;BME280;5494;51.796;10.952;2022-08-18T01:08:44;98506.94;;;21.23;54.67
18988;BME280;5494;51.796;10.952;2022-08-18T01:11:13;98508.25;;;21.19;54.95
18988;BME280;5494;51.796;10.952;2022-08-18T01:13:42;98508.31;;;21.10;55.30
18988;BME280;5494;51.796;10.952;2022-08-18T01:16:11;98507.66;;;21.08;54.66
18988;BME280;5494;51.796;10.952;2022-08-18T01:18:57;98505.84;;;21.08;55.44
18988;BME280;5494;51.796;10.952;2022-08-18T01:21:54;98519.44;;;21.13;55.43
18988;BME280;5494;51.796;10.952;2022-08-18T01:24:30;98509.00;;;21.12;55.55
18988;BME280;5494;51.796;10.952;2022-08-18T01:27:18;98507.66;;;21.08;55.80
18988;BME280;5494;51.796;10.952;2022-08-18T01:29:49;98517.91;;;21.11;55.30
18988;BME280;5494;51.796;10.952;2022-08-18T01:32:21;98517.56;;;21.06;55.41
18988;BME280;5494;51.796;10.952;2022-08-18T01:34:51;98531.56;;;20.98;55.72
18988;BME280;5494;51.796;10.952;2022-08-18T01:37:23;98524.84;;;20.86;56.52
18988;BME280;5494;51.796;10.952;2022-08-18T01:39:54;98536.81;;;20.72;57.37
18988;BME280;5494;51.796;10.952;2022-08-18T01:42:42;98534.38;;;20.79;57.20
18988;BME280;5494;51.796;10.952;2022-08-18T01:45:15;98544.25;;;20.77;58.24
18988;BME280;5494;51.796;10.952;2022-08-18T01:47:44;98555.31;;;20.72;58.40
18988;BME280;5494;51.796;10.952;2022-08-18T01:50:16;98545.56;;;20.73;58.19
18988;BME280;5494;51.796;10.952;2022-08-18T01:52:45;98547.53;;;20.71;58.00
18988;BME280;5494;51.796;10.952;2022-08-18T01:55:14;98548.88;;;20.75;58.35
18988;BME280;5494;51.796;10.952;2022-08-18T01:57:49;98544.94;;;20.79;58.07
18988;BME280;5494;51.796;10.952;2022-08-18T02:00:18;98553.09;;;20.86;57.43
18988;BME280;5494;51.796;10.952;2022-08-18T02:02:48;98544.66;;;20.64;58.11
18988;BME280;5494;51.796;10.952;2022-08-18T02:05:32;98544.44;;;20.58;58.22
18988;BME280;5494;51.796;10.952;2022-08-18T02:08:02;98538.41;;;20.65;57.89
18988;BME280;5494;51.796;10.952;2022-08-18T02:10:33;98531.38;;;20.74;57.16
18988;BME280;5494;51.796;10.952;2022-08-18T02:13:01;98535.13;;;20.71;57.53
18988;BME280;5494;51.796;10.952;2022-08-18T02:15:30;98535.00;;;20.73;57.31
18988;BME280;5494;51.796;10.952;2022-08-18T02:17:59;98533.75;;;20.85;57.45
18988;BME280;5494;51.796;10.952;2022-08-18T02:20:27;98530.72;;;20.98;58.43
18988;BME280;5494;51.796;10.952;2022-08-18T02:22:56;98528.63;;;21.09;58.99
18988;BME280;5494;51.796;10.952;2022-08-18T02:25:25;98528.50;;;21.29;59.96
18988;BME280;5494;51.796;10.952;2022-08-18T02:27:55;98526.91;;;21.44;60.18
18988;BME280;5494;51.796;10.952;2022-08-18T02:30:24;98525.53;;;21.66;61.85
18988;BME280;5494;51.796;10.952;2022-08-18T02:32:52;98527.06;;;21.76;61.77
18988;BME280;5494;51.796;10.952;2022-08-18T02:35:22;98520.78;;;21.77;62.86
18988;BME280;5494;51.796;10.952;2022-08-18T02:37:50;98524.94;;;21.88;62.97
18988;BME280;5494;51.796;10.952;2022-08-18T02:40:20;98520.69;;;21.95;63.02
18988;BME280;5494;51.796;10.952;2022-08-18T02:42:49;98523.69;;;22.00;63.05
18988;BME280;5494;51.796;10.952;2022-08-18T02:45:21;98518.59;;;22.07;62.99
18988;BME280;5494;51.796;10.952;2022-08-18T02:47:55;98506.16;;;21.99;63.30
18988;BME280;5494;51.796;10.952;2022-08-18T02:50:24;98524.06;;;22.05;63.87
18988;BME280;5494;51.796;10.952;2022-08-18T02:52:52;98512.78;;;22.03;63.43
18988;BME280;5494;51.796;10.952;2022-08-18T02:55:21;98517.41;;;22.01;64.42
18988;BME280;5494;51.796;10.952;2022-08-18T02:57:52;98521.22;;;22.07;64.09
18988;BME280;5494;51.796;10.952;2022-08-18T03:00:22;98515.78;;;22.08;64.78
18988;BME280;5494;51.796;10.952;2022-08-18T03:02:51;98513.13;;;22.08;64.63
18988;BME280;5494;51.796;10.952;2022-08-18T03:05:20;98518.59;;;22.07;64.84
18988;BME280;5494;51.796;10.952;2022-08-18T03:07:49;98514.91;;;21.99;64.67
18988;BME280;5494;51.796;10.952;2022-08-18T03:10:17;98511.91;;;21.94;65.18
18988;BME280;5494;51.796;10.952;2022-08-18T03:13:00;98507.94;;;21.90;65.04
18988;BME280;5494;51.796;10.952;2022-08-18T03:15:30;98515.50;;;21.85;65.68
18988;BME280;5494;51.796;10.952;2022-08-18T03:17:58;98514.69;;;21.85;65.39
18988;BME280;5494;51.796;10.952;2022-08-18T03:20:28;98515.88;;;21.90;64.92
18988;BME280;5494;51.796;10.952;2022-08-18T03:22:58;98520.31;;;21.82;65.61
18988;BME280;5494;51.796;10.952;2022-08-18T03:25:43;98522.78;;;21.83;65.82
18988;BME280;5494;51.796;10.952;2022-08-18T03:28:13;98525.09;;;21.86;66.03
18988;BME280;5494;51.796;10.952;2022-08-18T03:30:43;98525.41;;;21.75;66.00
18988;BME280;5494;51.796;10.952;2022-08-18T03:33:12;98521.88;;;21.67;66.73
18988;BME280;5494;51.796;10.952;2022-08-18T03:35:40;98526.19;;;21.68;67.11
18988;BME280;5494;51.796;10.952;2022-08-18T03:38:08;98525.38;;;21.67;66.97
18988;BME280;5494;51.796;10.952;2022-08-18T03:40:37;98524.38;;;21.68;66.58
18988;BME280;5494;51.796;10.952;2022-08-18T03:43:06;98529.97;;;21.57;67.12
18988;BME280;5494;51.796;10.952;2022-08-18T03:45:59;98529.28;;;21.55;66.79
18988;BME280;5494;51.796;10.952;2022-08-18T03:48:28;98535.06;;;21.50;67.29
18988;BME280;5494;51.796;10.952;2022-08-18T03:51:02;98539.91;;;21.37;67.75
18988;BME280;5494;51.796;10.952;2022-08-18T03:53:33;98537.66;;;21.42;67.70
18988;BME280;5494;51.796;10.952;2022-08-18T03:56:07;98538.44;;;21.35;67.72
18988;BME280;5494;51.796;10.952;2022-08-18T03:58:47;98542.53;;;21.29;68.53
18988;BME280;5494;51.796;10.952;2022-08-18T04:01:21;98546.31;;;21.27;68.45
18988;BME280;5494;51.796;10.952;2022-08-18T04:03:57;98543.00;;;21.25;68.07
18988;BME280;5494;51.796;10.952;2022-08-18T04:06:29;98552.81;;;21.14;68.96
18988;BME280;5494;51.796;10.952;2022-08-18T04:09:03;98547.47;;;21.06;68.80
18988;BME280;5494;51.796;10.952;2022-08-18T04:11:34;98543.16;;;21.05;68.98
18988;BME280;5494;51.796;10.952;2022-08-18T04:14:04;98542.53;;;21.11;68.78
18988;BME280;5494;51.796;10.952;2022-08-18T04:16:35;98545.66;;;21.07;69.19
18988;BME280;5494;51.796;10.952;2022-08-18T04:19:05;98549.06;;;20.99;69.02
18988;BME280;5494;51.796;10.952;2022-08-18T04:21:37;98550.94;;;21.07;68.84
18988;BME280;5494;51.796;10.952;2022-08-18T04:24:09;98552.41;;;21.01;69.18
18988;BME280;5494;51.796;10.952;2022-08-18T04:26:43;98555.28;;;20.90;69.56
18988;BME280;5494;51.796;10.952;2022-08-18T04:29:14;98554.44;;;20.90;69.84
18988;BME280;5494;51.796;10.952;2022-08-18T04:31:44;98552.97;;;20.95;69.82
18988;BME280;5494;51.796;10.952;2022-08-18T04:34:14;98553.44;;;21.08;69.96
18988;BME280;5494;51.796;10.952;2022-08-18T04:36:44;98552.81;;;21.14;69.62
18988;BME280;5494;51.796;10.952;2022-08-18T04:39:12;98552.53;;;21.17;69.01
18988;BME280;5494;51.796;10.952;2022-08-18T04:41:42;98560.59;;;21.16;69.40
18988;BME280;5494;51.796;10.952;2022-08-18T04:44:12;98556.53;;;21.21;69.50
18988;BME280;5494;51.796;10.952;2022-08-18T04:46:45;98561.72;;;21.13;69.30
18988;BME280;5494;51.796;10.952;2022-08-18T04:49:17;98552.28;;;21.11;70.10
18988;BME280;5494;51.796;10.952;2022-08-18T04:51:48;98565.66;;;21.09;70.03
18988;BME280;5494;51.796;10.952;2022-08-18T04:54:51;98571.31;;;21.14;69.60
18988;BME280;5494;51.796;10.952;2022-08-18T04:57:20;98567.31;;;21.10;70.09
18988;BME280;5494;51.796;10.952;2022-08-18T04:59:50;98558.78;;;21.16;69.99
18988;BME280;5494;51.796;10.952;2022-08-18T05:02:21;98563.63;;;21.21;70.09
18988;BME280;5494;51.796;10.952;2022-08-18T05:04:50;98559.84;;;21.23;70.11
18988;BME280;5494;51.796;10.952;2022-08-18T05:07:20;98560.50;;;21.26;69.91
18988;BME280;5494;51.796;10.952;2022-08-18T05:09:50;98566.84;;;21.33;69.81
18988;BME280;5494;51.796;10.952;2022-08-18T05:12:21;98561.25;;;21.36;70.38
18988;BME280;5494;51.796;10.952;2022-08-18T05:14:53;98571.63;;;21.55;70.05
18988;BME280;5494;51.796;10.952;2022-08-18T05:17:25;98568.38;;;21.69;69.26
18988;BME280;5494;51.796;10.952;2022-08-18T05:19:58;98573.34;;;21.98;68.31
18988;BME280;5494;51.796;10.952;2022-08-18T05:22:28;98574.75;;;22.18;67.82
18988;BME280;5494;51.796;10.952;2022-08-18T05:24:58;98573.50;;;22.47;66.72
18988;BME280;5494;51.796;10.952;2022-08-18T05:27:31;98581.31;;;22.72;65.60
18988;BME280;5494;51.796;10.952;2022-08-18T05:30:03;98584.31;;;22.94;64.86
18988;BME280;5494;51.796;10.952;2022-08-18T05:32:40;98586.16;;;23.09;64.38
18988;BME280;5494;51.796;10.952;2022-08-18T05:35:25;98583.47;;;23.17;63.81
18988;BME280;5494;51.796;10.952;2022-08-18T05:38:14;98574.16;;;23.38;63.08
18988;BME280;5494;51.796;10.952;2022-08-18T05:41:03;98582.28;;;23.52;62.25
18988;BME280;5494;51.796;10.952;2022-08-18T05:43:35;98583.94;;;23.62;62.50
18988;BME280;5494;51.796;10.952;2022-08-18T05:46:20;98587.13;;;23.57;62.55
18988;BME280;5494;51.796;10.952;2022-08-18T05:48:53;98588.75;;;23.58;61.86
18988;BME280;5494;51.796;10.952;2022-08-18T05:51:28;98588.25;;;23.63;61.58
18988;BME280;5494;51.796;10.952;2022-08-18T05:54:00;98582.94;;;23.71;61.50
18988;BME280;5494;51.796;10.952;2022-08-18T05:59:24;98591.19;;;23.84;61.18
18988;BME280;5494;51.796;10.952;2022-08-18T06:02:03;98587.84;;;23.90;60.62
18988;BME280;5494;51.796;10.952;2022-08-18T06:04:43;98579.81;;;24.06;60.30
18988;BME280;5494;51.796;10.952;2022-08-18T06:07:29;98580.94;;;24.20;59.81
18988;BME280;5494;51.796;10.952;2022-08-18T06:10:01;98579.25;;;24.19;59.20
18988;BME280;5494;51.796;10.952;2022-08-18T06:12:34;98582.91;;;24.26;59.05
18988;BME280;5494;51.796;10.952;2022-08-18T06:15:14;98583.31;;;24.38;58.37
18988;BME280;5494;51.796;10.952;2022-08-18T06:18:07;98571.28;;;24.27;58.59
18988;BME280;5494;51.796;10.952;2022-08-18T06:21:00;98582.31;;;24.39;58.33
18988;BME280;5494;51.796;10.952;2022-08-18T06:23:41;98589.09;;;24.41;57.45
18988;BME280;5494;51.796;10.952;2022-08-18T06:26:20;98586.72;;;24.23;58.06
18988;BME280;5494;51.796;10.952;2022-08-18T06:29:03;98599.00;;;24.16;57.90
18988;BME280;5494;51.796;10.952;2022-08-18T06:31:44;98595.69;;;24.22;58.14
18988;BME280;5494;51.796;10.952;2022-08-18T06:34:27;98601.97;;;24.29;57.36
18988;BME280;5494;51.796;10.952;2022-08-18T06:37:09;98611.47;;;24.16;57.41
18988;BME280;5494;51.796;10.952;2022-08-18T06:39:44;98608.13;;;24.14;58.36
18988;BME280;5494;51.796;10.952;2022-08-18T06:42:17;98613.66;;;24.12;57.99
18988;BME280;5494;51.796;10.952;2022-08-18T06:44:52;98608.84;;;24.08;58.27
18988;BME280;5494;51.796;10.952;2022-08-18T06:47:36;98609.03;;;24.06;58.76
18988;BME280;5494;51.796;10.952;2022-08-18T06:50:17;98619.97;;;24.03;58.80
18988;BME280;5494;51.796;10.952;2022-08-18T06:52:55;98625.28;;;24.03;58.79
18988;BME280;5494;51.796;10.952;2022-08-18T06:55:33;98624.78;;;24.08;58.83
18988;BME280;5494;51.796;10.952;2022-08-18T06:58:05;98629.94;;;24.01;58.68
18988;BME280;5494;51.796;10.952;2022-08-18T07:00:57;98633.25;;;24.03;58.86
18988;BME280;5494;51.796;10.952;2022-08-18T07:03:43;98633.56;;;24.08;58.97
18988;BME280;5494;51.796;10.952;2022-08-18T07:06:28;98637.38;;;24.22;59.01
18988;BME280;5494;51.796;10.952;2022-08-18T07:09:20;98628.47;;;24.46;58.34
18988;BME280;5494;51.796;10.952;2022-08-18T07:12:04;98633.00;;;24.68;57.81
18988;BME280;5494;51.796;10.952;2022-08-18T07:14:43;98630.34;;;24.91;57.08
18988;BME280;5494;51.796;10.952;2022-08-18T07:17:18;98633.03;;;25.14;57.18
18988;BME280;5494;51.796;10.952;2022-08-18T07:19:57;98635.13;;;25.18;56.56
18988;BME280;5494;51.796;10.952;2022-08-18T07:22:27;98627.84;;;25.35;56.83
18988;BME280;5494;51.796;10.952;2022-08-18T07:25:21;98629.91;;;25.47;55.55
18988;BME280;5494;51.796;10.952;2022-08-18T07:27:52;98631.06;;;25.45;55.51
18988;BME280;5494;51.796;10.952;2022-08-18T07:30:31;98634.81;;;25.73;54.80
18988;BME280;5494;51.796;10.952;2022-08-18T07:33:09;98633.38;;;25.85;53.58
18988;BME280;5494;51.796;10.952;2022-08-18T07:35:46;98635.00;;;25.86;54.20
18988;BME280;5494;51.796;10.952;2022-08-18T07:38:23;98627.47;;;25.75;53.89
18988;BME280;5494;51.796;10.952;2022-08-18T07:41:16;98613.25;;;25.83;54.17
18988;BME280;5494;51.796;10.952;2022-08-18T07:44:00;98613.03;;;26.14;53.48
18988;BME280;5494;51.796;10.952;2022-08-18T07:46:44;98613.19;;;26.56;51.76
18988;BME280;5494;51.796;10.952;2022-08-18T07:49:20;98607.94;;;26.84;50.86
18988;BME280;5494;51.796;10.952;2022-08-18T07:51:58;98618.25;;;27.30;50.16
18988;BME280;5494;51.796;10.952;2022-08-18T07:54:44;98613.13;;;28.25;47.29
18988;BME280;5494;51.796;10.952;2022-08-18T07:57:32;98611.63;;;28.70;45.67
18988;BME280;5494;51.796;10.952;2022-08-18T08:00:18;98611.50;;;29.05;44.79
18988;BME280;5494;51.796;10.952;2022-08-18T08:03:25;98610.53;;;29.39;43.96
18988;BME280;5494;51.796;10.952;2022-08-18T08:06:07;98604.31;;;29.12;44.85
18988;BME280;5494;51.796;10.952;2022-08-18T08:08:43;98603.28;;;29.26;44.29
18988;BME280;5494;51.796;10.952;2022-08-18T08:11:27;98597.13;;;29.45;43.89
18988;BME280;5494;51.796;10.952;2022-08-18T08:14:21;98598.53;;;29.02;44.37
18988;BME280;5494;51.796;10.952;2022-08-18T08:17:06;98603.59;;;28.70;45.50
18988;BME280;5494;51.796;10.952;2022-08-18T08:19:52;98607.31;;;28.63;45.85
18988;BME280;5494;51.796;10.952;2022-08-18T08:22:36;98607.81;;;29.12;45.35
18988;BME280;5494;51.796;10.952;2022-08-18T08:25:13;98609.91;;;29.56;44.32
18988;BME280;5494;51.796;10.952;2022-08-18T08:28:24;98610.09;;;29.61;43.41
18988;BME280;5494;51.796;10.952;2022-08-18T08:31:09;98616.66;;;29.79;43.68
18988;BME280;5494;51.796;10.952;2022-08-18T08:34:06;98616.84;;;29.90;43.02
18988;BME280;5494;51.796;10.952;2022-08-18T08:36:40;98619.53;;;29.84;42.31
18988;BME280;5494;51.796;10.952;2022-08-18T08:39:18;98618.72;;;29.76;43.43
18988;BME280;5494;51.796;10.952;2022-08-18T08:41:55;98621.56;;;30.01;43.05
18988;BME280;5494;51.796;10.952;2022-08-18T08:44:51;98632.56;;;29.47;44.57
18988;BME280;5494;51.796;10.952;2022-08-18T08:47:35;98631.72;;;29.53;44.43
18988;BME280;5494;51.796;10.952;2022-08-18T08:50:12;98633.81;;;29.38;44.94
18988;BME280;5494;51.796;10.952;2022-08-18T08:52:46;98630.69;;;29.15;45.22
18988;BME280;5494;51.796;10.952;2022-08-18T08:55:23;98630.47;;;29.10;45.91
18988;BME280;5494;51.796;10.952;2022-08-18T08:58:02;98623.44;;;28.82;46.29
18988;BME280;5494;51.796;10.952;2022-08-18T09:00:41;98620.25;;;28.66;46.44
18988;BME280;5494;51.796;10.952;2022-08-18T09:03:36;98625.50;;;28.33;48.31
18988;BME280;5494;51.796;10.952;2022-08-18T09:06:23;98630.72;;;28.06;48.74
18988;BME280;5494;51.796;10.952;2022-08-18T09:09:16;98631.78;;;27.77;49.81
18988;BME280;5494;51.796;10.952;2022-08-18T09:12:17;98638.19;;;27.55;50.81
18988;BME280;5494;51.796;10.952;2022-08-18T09:15:23;98642.25;;;27.51;51.13
18988;BME280;5494;51.796;10.952;2022-08-18T09:18:24;98645.06;;;27.43;51.86
18988;BME280;5494;51.796;10.952;2022-08-18T09:21:17;98646.06;;;27.42;51.92
18988;BME280;5494;51.796;10.952;2022-08-18T09:24:01;98646.50;;;27.45;52.14
18988;BME280;5494;51.796;10.952;2022-08-18T09:26:43;98640.91;;;27.62;52.86
18988;BME280;5494;51.796;10.952;2022-08-18T09:29:23;98643.41;;;27.42;54.34
18988;BME280;5494;51.796;10.952;2022-08-18T09:32:48;98640.88;;;26.91;55.36
18988;BME280;5494;51.796;10.952;2022-08-18T09:35:51;98637.38;;;27.12;55.72
18988;BME280;5494;51.796;10.952;2022-08-18T09:38:29;98636.44;;;26.98;54.69
18988;BME280;5494;51.796;10.952;2022-08-18T09:41:22;98632.44;;;27.09;54.64
18988;BME280;5494;51.796;10.952;2022-08-18T09:44:05;98646.97;;;27.28;54.05
18988;BME280;5494;51.796;10.952;2022-08-18T09:46:59;98647.56;;;27.23;53.72
18988;BME280;5494;51.796;10.952;2022-08-18T09:49:42;98643.97;;;27.37;53.93
18988;BME280;5494;51.796;10.952;2022-08-18T09:52:58;98644.81;;;27.38;53.40
18988;BME280;5494;51.796;10.952;2022-08-18T09:55:55;98652.09;;;27.51;53.30
18988;BME280;5494;51.796;10.952;2022-08-18T09:59:01;98644.22;;;27.42;53.25
18988;BME280;5494;51.796;10.952;2022-08-18T10:01:39;98654.41;;;27.32;54.26
18988;BME280;5494;51.796;10.952;2022-08-18T10:04:30;98648.13;;;27.19;54.04
18988;BME280;5494;51.796;10.952;2022-08-18T10:07:30;98645.00;;;27.15;54.15
18988;BME280;5494;51.796;10.952;2022-08-18T10:10:23;98649.16;;;26.82;54.39
18988;BME280;5494;51.796;10.952;2022-08-18T10:13:21;98642.03;;;26.67;55.36
18988;BME280;5494;51.796;10.952;2022-08-18T10:16:06;98634.16;;;26.59;55.83
18988;BME280;5494;51.796;10.952;2022-08-18T10:18:54;98629.94;;;26.36;56.44
18988;BME280;5494;51.796;10.952;2022-08-18T10:22:03;98640.69;;;26.42;56.25
18988;BME280;5494;51.796;10.952;2022-08-18T10:24:47;98639.34;;;26.32;55.98
18988;BME280;5494;51.796;10.952;2022-08-18T10:27:47;98656.16;;;26.17;55.91
18988;BME280;5494;51.796;10.952;2022-08-18T10:31:03;98654.13;;;26.05;56.64
18988;BME280;5494;51.796;10.952;2022-08-18T10:34:05;98657.91;;;25.96;57.49
18988;BME280;5494;51.796;10.952;2022-08-18T10:36:54;98661.19;;;25.83;58.42
18988;BME280;5494;51.796;10.952;2022-08-18T10:39:44;98661.13;;;25.91;58.62
18988;BME280;5494;51.796;10.952;2022-08-18T10:42:22;98667.53;;;25.97;58.23
18988;BME280;5494;51.796;10.952;2022-08-18T10:45:10;98664.31;;;26.01;60.10
18988;BME280;5494;51.796;10.952;2022-08-18T10:48:05;98661.56;;;25.80;62.11
18988;BME280;5494;51.796;10.952;2022-08-18T10:50:58;98671.09;;;25.74;64.01
18988;BME280;5494;51.796;10.952;2022-08-18T10:53:38;98665.50;;;25.69;65.30
18988;BME280;5494;51.796;10.952;2022-08-18T10:56:28;98665.44;;;25.55;65.40
18988;BME280;5494;51.796;10.952;2022-08-18T10:59:18;98666.94;;;25.34;67.88
18988;BME280;5494;51.796;10.952;2022-08-18T11:02:37;98662.19;;;25.30;70.88
18988;BME280;5494;51.796;10.952;2022-08-18T11:05:15;98669.66;;;25.49;69.31
18988;BME280;5494;51.796;10.952;2022-08-18T11:07:47;98677.78;;;25.33;70.70
18988;BME280;5494;51.796;10.952;2022-08-18T11:10:37;98667.78;;;25.35;71.40
18988;BME280;5494;51.796;10.952;2022-08-18T11:13:34;98668.34;;;25.45;70.94
18988;BME280;5494;51.796;10.952;2022-08-18T11:16:25;98664.56;;;25.39;71.80
18988;BME280;5494;51.796;10.952;2022-08-18T11:19:07;98662.38;;;25.43;71.33
18988;BME280;5494;51.796;10.952;2022-08-18T11:21:41;98675.63;;;25.51;71.45
18988;BME280;5494;51.796;10.952;2022-08-18T11:24:20;98673.22;;;25.64;70.36
18988;BME280;5494;51.796;10.952;2022-08-18T11:26:54;98676.41;;;25.60;73.49
18988;BME280;5494;51.796;10.952;2022-08-18T11:29:29;98679.81;;;25.68;73.68
18988;BME280;5494;51.796;10.952;2022-08-18T11:32:25;98672.09;;;25.73;74.91
18988;BME280;5494;51.796;10.952;2022-08-18T11:35:05;98678.66;;;25.71;74.35
18988;BME280;5494;51.796;10.952;2022-08-18T11:37:43;98677.63;;;25.86;73.63
18988;BME280;5494;51.796;10.952;2022-08-18T11:40:36;98672.22;;;25.95;73.15
18988;BME280;5494;51.796;10.952;2022-08-18T11:43:30;98672.31;;;25.86;74.01
18988;BME280;5494;51.796;10.952;2022-08-18T11:46:15;98680.28;;;25.86;75.02
18988;BME280;5494;51.796;10.952;2022-08-18T11:48:54;98685.81;;;25.85;72.55
18988;BME280;5494;51.796;10.952;2022-08-18T11:51:28;98700.78;;;25.71;74.80
18988;BME280;5494;51.796;10.952;2022-08-18T11:54:02;98701.31;;;25.44;75.60
18988;BME280;5494;51.796;10.952;2022-08-18T11:56:45;98701.38;;;25.36;75.42
18988;BME280;5494;51.796;10.952;2022-08-18T11:59:30;98695.44;;;25.26;77.76
18988;BME280;5494;51.796;10.952;2022-08-18T12:02:20;98697.28;;;25.25;78.63
18988;BME280;5494;51.796;10.952;2022-08-18T12:04:55;98705.19;;;25.10;79.69
18988;BME280;5494;51.796;10.952;2022-08-18T12:07:41;98705.16;;;24.96;79.42
18988;BME280;5494;51.796;10.952;2022-08-18T12:10:26;98699.84;;;24.88;80.28
18988;BME280;5494;51.796;10.952;2022-08-18T12:12:57;98703.56;;;24.79;80.54
18988;BME280;5494;51.796;10.952;2022-08-18T12:15:30;98700.72;;;24.80;81.35
18988;BME280;5494;51.796;10.952;2022-08-18T12:18:14;98690.09;;;24.80;81.25
18988;BME280;5494;51.796;10.952;2022-08-18T12:20:56;98689.50;;;24.62;81.33
18988;BME280;5494;51.796;10.952;2022-08-18T12:23:26;98705.16;;;24.57;81.50
18988;BME280;5494;51.796;10.952;2022-08-18T12:26:10;98702.53;;;24.49;83.20
18988;BME280;5494;51.796;10.952;2022-08-18T12:28:59;98696.34;;;24.56;83.15
18988;BME280;5494;51.796;10.952;2022-08-18T12:31:29;98677.56;;;24.58;82.22
18988;BME280;5494;51.796;10.952;2022-08-18T12:34:15;98665.53;;;24.70;82.41
18988;BME280;5494;51.796;10.952;2022-08-18T12:37:08;98668.09;;;24.86;82.49
18988;BME280;5494;51.796;10.952;2022-08-18T12:39:59;98660.66;;;24.82;82.98
18988;BME280;5494;51.796;10.952;2022-08-18T12:42:28;98651.97;;;24.88;81.73
18988;BME280;5494;51.796;10.952;2022-08-18T12:44:57;98658.78;;;24.90;81.36
18988;BME280;5494;51.796;10.952;2022-08-18T12:47:26;98658.22;;;25.03;79.94
18988;BME280;5494;51.796;10.952;2022-08-18T12:49:58;98651.09;;;25.18;79.12
18988;BME280;5494;51.796;10.952;2022-08-18T12:52:27;98644.88;;;25.26;78.58
18988;BME280;5494;51.796;10.952;2022-08-18T12:54:59;98645.00;;;25.32;78.22
18988;BME280;5494;51.796;10.952;2022-08-18T12:57:29;98644.00;;;25.33;77.68
18988;BME280;5494;51.796;10.952;2022-08-18T13:00:18;98642.53;;;25.45;76.64
18988;BME280;5494;51.796;10.952;2022-08-18T13:02:54;98634.66;;;25.52;77.25
18988;BME280;5494;51.796;10.952;2022-08-18T13:05:23;98631.44;;;25.65;75.21
18988;BME280;5494;51.796;10.952;2022-08-18T13:08:00;98627.47;;;25.75;74.09
18988;BME280;5494;51.796;10.952;2022-08-18T13:10:32;98627.13;;;25.78;74.61
18988;BME280;5494;51.796;10.952;2022-08-18T13:13:14;98629.06;;;25.84;74.62
18988;BME280;5494;51.796;10.952;2022-08-18T13:15:43;98633.00;;;25.88;75.18
18988;BME280;5494;51.796;10.952;2022-08-18T13:18:23;98620.78;;;25.79;75.96
18988;BME280;5494;51.796;10.952;2022-08-18T13:20:55;98611.16;;;25.78;76.61
18988;BME280;5494;51.796;10.952;2022-08-18T13:23:26;98608.19;;;25.73;74.64
18988;BME280;5494;51.796;10.952;2022-08-18T13:25:58;98606.91;;;25.69;74.62
18988;BME280;5494;51.796;10.952;2022-08-18T13:28:31;98603.50;;;25.61;73.89
18988;BME280;5494;51.796;10.952;2022-08-18T13:31:21;98602.19;;;25.57;72.80
18988;BME280;5494;51.796;10.952;2022-08-18T13:33:49;98599.84;;;25.62;72.59
18988;BME280;5494;51.796;10.952;2022-08-18T13:36:28;98597.81;;;25.64;71.66
18988;BME280;5494;51.796;10.952;2022-08-18T13:39:14;98609.47;;;25.63;71.01
18988;BME280;5494;51.796;10.952;2022-08-18T13:41:48;98617.34;;;25.56;71.88
18988;BME280;5494;51.796;10.952;2022-08-18T13:44:20;98611.44;;;25.46;72.37
18988;BME280;5494;51.796;10.952;2022-08-18T13:46:52;98613.75;;;25.49;71.82
18988;BME280;5494;51.796;10.952;2022-08-18T13:49:23;98614.31;;;25.44;71.69
18988;BME280;5494;51.796;10.952;2022-08-18T13:51:57;98611.22;;;25.33;71.20
18988;BME280;5494;51.796;10.952;2022-08-18T13:54:32;98611.91;;;25.12;72.98
18988;BME280;5494;51.796;10.952;2022-08-18T13:57:04;98610.06;;;25.13;72.85
18988;BME280;5494;51.796;10.952;2022-08-18T13:59:33;98609.09;;;24.91;73.67
18988;BME280;5494;51.796;10.952;2022-08-18T14:02:12;98596.84;;;25.04;73.54
18988;BME280;5494;51.796;10.952;2022-08-18T14:04:41;98586.78;;;25.15;73.49